Time;durP1;ratioP1;P1;durP2;ratioP2;P2;SDS_P1;SDS_P2;PMS_P1;PMS_P2;Temp;Humidity;BMP_temperature;BMP_pressure;BME280_temperature;BME280_humidity;BME280_pressure;Samples;Min_cycle;Max_cycle;Signal;HPM_P1;HPM_P2
2023/05/24 03:48:22;;;;;;;1.50;0.60;;;20.20;63.40;;;;;;5070071;27;45596;-76
2023/05/24 03:50:50;;;;;;;1.95;0.80;;;20.40;64.20;;;;;;5139556;27;49137;-76
2023/05/24 03:53:17;;;;;;;3.08;1.13;;;20.30;64.30;;;;;;5147518;27;46395;-75
2023/05/24 03:55:51;;;;;;;3.50;1.20;;;19.80;62.00;;;;;;5147435;27;45300;-76
2023/05/24 04:45:24;;;;;;;3.22;1.20;;;20.20;63.00;;;;;;5020314;28;45585;-75
2023/05/24 05:08:19;;;;;;;2.15;0.80;;;20.30;63.20;;;;;;4982438;28;45480;-76
2023/05/24 05:10:47;;;;;;;3.10;0.90;;;20.30;65.40;;;;;;5066428;28;45351;-75
2023/05/24 05:13:13;;;;;;;2.92;1.00;;;20.00;62.60;;;;;;5066171;28;45162;-75
2023/05/24 05:15:40;;;;;;;4.45;0.80;;;20.00;62.40;;;;;;5141710;27;45515;-75
2023/05/24 05:18:07;;;;;;;2.88;1.00;;;20.00;62.60;;;;;;5153625;27;45403;-75
2023/05/24 05:30:40;;;;;;;3.45;1.17;;;20.10;62.70;;;;;;5146515;27;45567;-76
2023/05/24 05:37:03;;;;;;;2.17;0.88;;;20.60;63.30;;;;;;5146615;27;45227;-82
2023/05/24 06:03:31;;;;;;;24.83;1.70;;;20.10;63.60;;;;;;5154072;27;45354;-70
2023/05/24 06:23:06;;;;;;;6.13;1.58;;;20.10;63.90;;;;;;5164192;27;45592;-74
2023/05/24 06:25:33;;;;;;;4.47;1.13;;;20.10;64.10;;;;;;5169932;27;45493;-74
2023/05/24 06:28:00;;;;;;;5.75;1.20;;;20.10;63.90;;;;;;5169786;27;45119;-73
2023/05/24 06:30:27;;;;;;;4.13;1.42;;;20.10;64.00;;;;;;5169549;27;45520;-74
2023/05/24 06:32:54;;;;;;;6.18;1.27;;;20.10;64.00;;;;;;5169504;27;46576;-74
2023/05/24 06:35:20;;;;;;;3.40;1.20;;;20.10;64.00;;;;;;5163093;27;45468;-74
2023/05/24 06:37:47;;;;;;;4.80;1.30;;;20.10;64.00;;;;;;5169454;27;45329;-73
2023/05/24 06:40:15;;;;;;;3.78;1.30;;;20.10;63.40;;;;;;5169550;27;45357;-73
2023/05/24 06:42:42;;;;;;;5.40;1.33;;;20.00;62.90;;;;;;5168706;27;46623;-73
2023/05/24 06:45:10;;;;;;;4.72;1.33;;;20.00;62.20;;;;;;5169473;27;45210;-74
2023/05/24 06:47:36;;;;;;;3.70;1.20;;;20.00;61.50;;;;;;5169230;27;45266;-74
2023/05/24 06:50:04;;;;;;;3.20;1.23;;;20.00;61.20;;;;;;5168208;27;45535;-73
2023/05/24 06:52:30;;;;;;;5.38;1.35;;;20.00;61.20;;;;;;5150929;27;47535;-74
2023/05/24 06:54:57;;;;;;;6.22;1.52;;;20.00;60.60;;;;;;5168780;27;45188;-74
2023/05/24 06:57:25;;;;;;;5.43;1.40;;;20.00;61.50;;;;;;5169038;27;45390;-74
2023/05/24 06:59:52;;;;;;;5.28;1.70;;;19.90;60.30;;;;;;5171455;27;45191;-74
2023/05/24 07:12:19;;;;;;;4.97;1.50;;;20.00;60.90;;;;;;5102210;27;45210;-75
2023/05/24 07:14:48;;;;;;;3.60;1.30;;;20.10;61.40;;;;;;5167879;27;45351;-75
2023/05/24 07:17:14;;;;;;;3.38;1.20;;;20.10;61.50;;;;;;5168999;27;45780;-75
2023/05/24 07:19:41;;;;;;;4.93;1.38;;;20.10;61.60;;;;;;5169314;27;45333;-74
2023/05/24 07:25:31;;;;;;;6.00;1.50;;;20.30;62.00;;;;;;5165933;27;45657;-76
2023/05/24 07:27:58;;;;;;;5.30;1.38;;;20.10;62.50;;;;;;5168898;27;46118;-75
2023/05/24 07:30:26;;;;;;;5.90;1.58;;;20.20;62.10;;;;;;5169105;27;45324;-75
2023/05/24 07:32:53;;;;;;;7.50;2.20;;;20.20;62.00;;;;;;5169264;27;45189;-75
2023/05/24 07:35:20;;;;;;;9.02;1.50;;;20.20;62.00;;;;;;5168758;27;46523;-74
2023/05/24 07:37:46;;;;;;;4.43;1.40;;;20.20;62.10;;;;;;5169093;27;45100;-74
2023/05/24 07:40:13;;;;;;;5.90;1.50;;;20.20;63.20;;;;;;5169101;27;45203;-74
2023/05/24 07:42:40;;;;;;;3.70;1.40;;;20.20;62.40;;;;;;5169105;27;45291;-74
2023/05/24 07:45:09;;;;;;;4.05;1.13;;;20.20;62.30;;;;;;5168815;27;47380;-74
2023/05/24 07:47:37;;;;;;;7.68;1.75;;;20.20;62.30;;;;;;5169090;27;45135;-74
2023/05/24 07:50:04;;;;;;;5.65;2.15;;;20.20;62.20;;;;;;5170115;27;45137;-74
2023/05/24 07:52:31;;;;;;;7.82;1.42;;;20.20;62.30;;;;;;5170198;27;45341;-74
2023/05/24 07:54:58;;;;;;;4.20;1.35;;;20.20;62.30;;;;;;5168416;27;47516;-74
2023/05/24 07:57:25;;;;;;;6.13;1.75;;;20.20;62.30;;;;;;5168416;27;46302;-74
2023/05/24 07:59:51;;;;;;;4.68;1.48;;;20.20;62.40;;;;;;5169332;27;45116;-74
2023/05/24 08:02:18;;;;;;;3.40;1.35;;;20.20;62.30;;;;;;5172432;27;45315;-74
2023/05/24 08:04:47;;;;;;;6.30;1.73;;;20.20;62.20;;;;;;5171874;27;47328;-74
2023/05/24 08:07:14;;;;;;;4.93;1.40;;;20.20;62.20;;;;;;5171908;27;45196;-73
2023/05/24 08:09:41;;;;;;;5.68;1.55;;;20.20;62.30;;;;;;5172041;27;45322;-73
2023/05/24 08:12:08;;;;;;;3.30;1.30;;;20.20;62.20;;;;;;5171709;27;45381;-74
2023/05/24 08:14:35;;;;;;;4.18;1.27;;;20.20;62.10;;;;;;5171608;27;46415;-73
2023/05/24 08:17:01;;;;;;;3.63;1.40;;;20.20;61.90;;;;;;5150564;27;45213;-73
2023/05/24 08:19:34;;;;;;;4.10;1.25;;;20.20;63.10;;;;;;5166728;27;45206;-73
2023/05/24 08:22:04;;;;;;;6.00;1.73;;;20.20;62.10;;;;;;5171524;27;45233;-73
2023/05/24 08:24:31;;;;;;;4.30;1.50;;;20.20;62.00;;;;;;5171290;27;46317;-74
2023/05/24 08:26:58;;;;;;;4.03;1.20;;;20.30;62.20;;;;;;5171338;27;45262;-74
2023/05/24 08:29:25;;;;;;;6.25;2.08;;;20.30;62.10;;;;;;5171943;27;45297;-74
2023/05/24 08:31:51;;;;;;;7.38;1.73;;;20.30;62.10;;;;;;5171805;27;45333;-74
2023/05/24 08:34:18;;;;;;;4.20;1.35;;;20.30;61.90;;;;;;5171567;27;47013;-74
2023/05/24 08:36:45;;;;;;;3.90;1.65;;;20.30;61.90;;;;;;5171622;27;45373;-74
2023/05/24 08:39:13;;;;;;;4.18;1.48;;;20.30;61.90;;;;;;5171411;27;45341;-74
2023/05/24 08:41:41;;;;;;;6.20;1.75;;;20.30;61.70;;;;;;5173779;27;45334;-73
2023/05/24 08:44:08;;;;;;;3.67;1.45;;;20.30;61.60;;;;;;5170996;27;46502;-74
2023/05/24 08:46:36;;;;;;;6.32;1.52;;;20.30;61.60;;;;;;5171714;27;45161;-74
2023/05/24 08:49:03;;;;;;;5.53;1.65;;;20.30;61.60;;;;;;5171737;27;45137;-75
2023/05/24 08:51:30;;;;;;;5.60;1.63;;;20.40;61.70;;;;;;5171661;27;45295;-73
2023/05/24 08:53:58;;;;;;;4.32;1.45;;;20.30;61.70;;;;;;5170580;27;46231;-73
2023/05/24 08:56:27;;;;;;;4.30;1.50;;;20.30;61.40;;;;;;5170743;27;45240;-73
2023/05/24 08:58:54;;;;;;;5.38;1.55;;;20.40;61.30;;;;;;5171077;27;45326;-73
2023/05/24 09:01:23;;;;;;;5.18;1.50;;;20.40;61.10;;;;;;5171315;27;45324;-74
2023/05/24 09:03:51;;;;;;;4.78;1.40;;;20.40;61.40;;;;;;5171053;27;46617;-74
2023/05/24 09:06:18;;;;;;;3.05;1.13;;;20.40;61.50;;;;;;5171231;27;45208;-74
2023/05/24 09:08:46;;;;;;;5.95;1.50;;;20.30;61.40;;;;;;5171082;27;45349;-74
2023/05/24 09:11:16;;;;;;;4.57;1.63;;;20.30;61.40;;;;;;5170659;27;45567;-74
2023/05/24 09:13:45;;;;;;;4.47;1.52;;;20.30;61.70;;;;;;5170121;27;48094;-73
2023/05/24 09:16:12;;;;;;;5.00;1.67;;;20.30;61.60;;;;;;5170878;27;45302;-74
2023/05/24 09:18:41;;;;;;;7.47;1.50;;;20.30;61.70;;;;;;5171004;27;45307;-74
2023/05/24 09:25:01;;;;;;;5.00;1.55;;;20.40;61.90;;;;;;5167622;27;45674;-76
2023/05/24 09:27:28;;;;;;;3.40;1.38;;;21.00;62.50;;;;;;5170952;27;45147;-75
2023/05/24 09:29:56;;;;;;;5.45;1.98;;;20.30;62.60;;;;;;5170892;27;45070;-75
2023/05/24 09:32:23;;;;;;;4.80;1.50;;;20.30;63.30;;;;;;5173936;27;45426;-74
2023/05/24 09:34:53;;;;;;;3.47;1.25;;;20.30;62.10;;;;;;5171278;27;47410;-75
2023/05/24 09:37:22;;;;;;;3.35;1.45;;;20.90;62.60;;;;;;5170876;27;45088;-75
2023/05/24 09:39:50;;;;;;;3.55;1.17;;;20.30;62.10;;;;;;5170900;27;45219;-75
2023/05/24 09:42:20;;;;;;;4.90;1.27;;;20.30;62.20;;;;;;5170959;27;45105;-75
2023/05/24 09:44:46;;;;;;;3.38;1.35;;;20.30;62.00;;;;;;5170708;27;47041;-75
2023/05/24 09:47:15;;;;;;;6.63;1.52;;;20.20;61.90;;;;;;5170745;27;45221;-74
2023/05/24 09:49:42;;;;;;;4.43;1.27;;;20.20;62.00;;;;;;5170758;27;45094;-74
2023/05/24 09:52:13;;;;;;;5.20;1.60;;;20.30;62.10;;;;;;5170598;27;45572;-74
2023/05/24 09:54:41;;;;;;;5.20;1.80;;;20.30;63.00;;;;;;5165915;27;46288;-71
2023/05/24 09:57:08;;;;;;;10.35;1.80;;;20.20;61.80;;;;;;5165062;27;45841;-70
2023/05/24 09:59:35;;;;;;;21.10;5.05;;;20.30;62.20;;;;;;5166548;27;45302;-72
2023/05/24 11:18:33;;;;;;;4.50;2.00;;;21.20;68.50;;;;;;5166922;27;45340;-77
2023/05/24 11:58:42;;;;;;;5.68;1.90;;;21.20;67.30;;;;;;5165850;27;45408;-71
2023/05/24 12:01:24;;;;;;;9.13;1.48;;;20.90;68.90;;;;;;5163450;27;45475;-73
2023/05/24 12:03:53;;;;;;;9.35;1.50;;;20.90;67.50;;;;;;5164956;27;45378;-72
2023/05/24 12:06:20;;;;;;;9.98;1.70;;;20.90;66.50;;;;;;5156824;27;46369;-72
2023/05/24 12:08:48;;;;;;;6.45;1.77;;;20.90;66.40;;;;;;5166455;27;45185;-71
2023/05/24 12:11:15;;;;;;;4.65;1.20;;;20.90;65.90;;;;;;5171100;27;45232;-73
2023/05/24 12:13:42;;;;;;;7.35;1.65;;;20.90;65.70;;;;;;5162915;27;45508;-72
2023/05/24 12:16:13;;;;;;;5.95;2.08;;;21.00;66.00;;;;;;5167837;27;45256;-72
2023/05/24 12:18:41;;;;;;;11.98;2.22;;;20.90;66.10;;;;;;5161145;27;45632;-72
2023/05/24 12:21:11;;;;;;;11.50;1.88;;;20.90;66.20;;;;;;5161457;27;45360;-72
2023/05/24 12:23:38;;;;;;;2.67;1.30;;;20.90;65.60;;;;;;5153958;27;45379;-72
2023/05/24 12:26:05;;;;;;;5.65;1.83;;;20.80;65.00;;;;;;5167816;27;47856;-71
2023/05/24 12:28:35;;;;;;;5.97;1.50;;;20.80;64.60;;;;;;5168108;27;45360;-72
2023/05/24 12:31:03;;;;;;;6.25;1.52;;;20.80;63.80;;;;;;5160010;27;45571;-72
2023/05/24 12:33:30;;;;;;;3.90;1.50;;;20.90;64.00;;;;;;5164187;27;45340;-71
2023/05/24 12:35:59;;;;;;;6.57;1.35;;;20.80;63.50;;;;;;5167741;27;46384;-72
2023/05/24 12:38:26;;;;;;;3.13;1.40;;;20.80;63.80;;;;;;5167361;27;45288;-71
2023/05/24 12:40:53;;;;;;;4.28;1.15;;;20.80;64.10;;;;;;5161517;27;45275;-72
2023/05/24 12:43:21;;;;;;;2.08;1.10;;;20.70;64.00;;;;;;5164395;27;45484;-71
2023/05/24 12:45:47;;;;;;;5.63;1.42;;;20.70;64.30;;;;;;5165158;27;45396;-72
2023/05/24 12:48:14;;;;;;;4.10;1.40;;;20.70;64.20;;;;;;5165908;27;45438;-70
2023/05/24 12:50:41;;;;;;;4.28;1.50;;;20.70;64.20;;;;;;5165487;27;45434;-71
2023/05/24 12:53:09;;;;;;;4.47;1.67;;;20.60;64.20;;;;;;5163435;27;45423;-71
2023/05/24 12:55:36;;;;;;;3.93;1.40;;;20.60;64.00;;;;;;5158890;27;48042;-71
2023/05/24 12:58:05;;;;;;;6.88;1.55;;;20.60;64.30;;;;;;5162996;27;45257;-70
2023/05/24 13:00:31;;;;;;;3.90;1.40;;;20.60;64.30;;;;;;5162840;27;45389;-72
2023/05/24 13:02:58;;;;;;;4.57;1.60;;;20.60;64.30;;;;;;5166536;27;45213;-71
2023/05/24 13:05:27;;;;;;;3.35;1.45;;;20.60;64.10;;;;;;5160752;27;46573;-72
2023/05/24 13:07:55;;;;;;;3.30;1.30;;;20.60;64.00;;;;;;5166940;27;45412;-72
2023/05/24 13:10:23;;;;;;;3.03;1.27;;;20.60;64.10;;;;;;5165604;27;45345;-72
2023/05/24 13:12:50;;;;;;;4.00;1.23;;;20.60;64.00;;;;;;5167478;27;45539;-71
2023/05/24 13:15:18;;;;;;;5.43;1.60;;;20.60;64.10;;;;;;5165020;27;45365;-71
2023/05/24 13:17:45;;;;;;;5.63;1.63;;;20.60;64.20;;;;;;5166773;27;45282;-71
2023/05/24 13:20:12;;;;;;;4.07;1.48;;;20.60;64.00;;;;;;5162664;27;45353;-71
2023/05/24 13:22:39;;;;;;;3.80;1.27;;;20.50;63.70;;;;;;5164267;27;45299;-71
2023/05/24 13:25:08;;;;;;;2.47;1.27;;;20.50;63.80;;;;;;5162787;27;48463;-72
2023/05/24 13:27:36;;;;;;;3.97;1.40;;;20.50;63.80;;;;;;5166988;27;45367;-71
2023/05/24 13:30:04;;;;;;;3.22;1.38;;;20.50;64.00;;;;;;5155789;27;45270;-71
2023/05/24 13:32:32;;;;;;;2.15;1.40;;;20.50;64.10;;;;;;5171236;27;45545;-71
2023/05/24 13:34:58;;;;;;;3.53;1.40;;;20.50;64.10;;;;;;5169326;27;47557;-72
2023/05/24 13:37:25;;;;;;;3.78;1.35;;;20.50;64.20;;;;;;5172049;27;46316;-71
2023/05/24 13:39:52;;;;;;;2.90;1.10;;;20.50;65.20;;;;;;5166100;27;45502;-71
2023/05/24 13:42:19;;;;;;;2.58;1.17;;;20.50;64.10;;;;;;5167214;27;45349;-72
2023/05/24 13:44:47;;;;;;;5.03;1.48;;;20.50;64.00;;;;;;5164919;27;47946;-72
2023/05/24 13:47:18;;;;;;;4.43;1.50;;;20.50;64.10;;;;;;5168505;27;45447;-71
2023/05/24 13:49:45;;;;;;;3.15;1.45;;;20.50;64.00;;;;;;5167028;27;45334;-71
2023/05/24 13:52:12;;;;;;;3.60;1.40;;;20.50;63.80;;;;;;5166669;27;45702;-71
2023/05/24 13:54:39;;;;;;;5.00;1.20;;;20.50;63.90;;;;;;5162447;27;46296;-71
2023/05/24 13:57:05;;;;;;;3.22;1.30;;;20.50;63.60;;;;;;5166355;27;45952;-71
2023/05/24 13:59:33;;;;;;;2.33;1.08;;;20.50;63.50;;;;;;5167141;27;45211;-72
2023/05/24 14:02:01;;;;;;;3.55;1.48;;;20.50;63.80;;;;;;5166869;27;45505;-71
2023/05/24 14:04:29;;;;;;;4.07;1.23;;;20.50;63.80;;;;;;5154469;27;45432;-71
2023/05/24 14:06:56;;;;;;;3.20;1.10;;;20.50;63.60;;;;;;5165393;27;45339;-71
2023/05/24 14:09:24;;;;;;;2.92;1.08;;;20.50;63.70;;;;;;5165876;27;45317;-71
2023/05/24 14:11:51;;;;;;;3.47;1.20;;;20.50;64.00;;;;;;5165254;27;45289;-73
2023/05/24 14:14:18;;;;;;;3.33;1.25;;;20.50;64.00;;;;;;5160765;27;46292;-71
2023/05/24 14:16:50;;;;;;;4.78;1.30;;;20.50;63.90;;;;;;5165641;27;45356;-71
2023/05/24 14:19:18;;;;;;;1.73;0.93;;;20.50;63.80;;;;;;5159680;27;45327;-72
2023/05/24 14:21:45;;;;;;;2.85;1.02;;;20.50;64.00;;;;;;5163852;27;45314;-72
2023/05/24 14:24:11;;;;;;;3.13;1.10;;;20.40;64.00;;;;;;5156146;27;47543;-71
2023/05/24 14:26:40;;;;;;;4.40;1.08;;;20.40;63.60;;;;;;5153582;27;45432;-74
2023/05/24 14:29:07;;;;;;;2.55;1.20;;;20.50;64.80;;;;;;5167232;27;45351;-73
2023/05/24 14:31:34;;;;;;;2.45;0.90;;;20.40;64.80;;;;;;5161379;27;45449;-72
2023/05/24 14:34:01;;;;;;;2.38;1.30;;;20.40;63.60;;;;;;5150248;27;46297;-72
2023/05/24 14:36:29;;;;;;;5.60;1.75;;;20.40;63.70;;;;;;5166742;27;45482;-71
2023/05/24 14:38:56;;;;;;;2.47;1.13;;;20.40;63.50;;;;;;5158569;27;45354;-72
2023/05/24 14:41:23;;;;;;;6.30;1.65;;;20.50;63.30;;;;;;5166656;27;45606;-71
2023/05/24 14:43:49;;;;;;;3.22;1.17;;;20.50;63.20;;;;;;5165201;27;47039;-71
2023/05/24 14:46:16;;;;;;;2.50;1.45;;;20.50;63.00;;;;;;5165804;27;45364;-72
2023/05/24 14:48:43;;;;;;;2.33;1.10;;;20.50;62.80;;;;;;5166687;27;45468;-72
2023/05/24 14:51:10;;;;;;;2.17;1.05;;;20.50;62.80;;;;;;5166196;27;45283;-71
2023/05/24 14:53:38;;;;;;;3.15;1.30;;;20.50;62.70;;;;;;5160621;27;45344;-74
2023/05/24 14:56:07;;;;;;;1.92;1.05;;;20.50;62.70;;;;;;5156817;27;45256;-72
2023/05/24 14:58:34;;;;;;;1.70;1.02;;;20.50;62.60;;;;;;5165797;27;45256;-71
2023/05/24 15:01:01;;;;;;;2.65;1.10;;;20.50;62.70;;;;;;5165909;27;45642;-72
2023/05/24 15:03:28;;;;;;;2.22;1.10;;;20.40;62.60;;;;;;5165140;27;46961;-72
2023/05/24 15:05:55;;;;;;;4.70;1.52;;;20.40;62.40;;;;;;5165485;27;45377;-71
2023/05/24 15:08:21;;;;;;;4.30;1.30;;;20.40;62.60;;;;;;5165763;27;45519;-71
2023/05/24 15:10:50;;;;;;;3.05;1.10;;;20.40;62.50;;;;;;5165011;27;45461;-71
2023/05/24 15:13:17;;;;;;;4.15;1.55;;;20.40;62.60;;;;;;5163145;27;47321;-71
2023/05/24 15:15:44;;;;;;;2.60;1.38;;;20.40;62.40;;;;;;5161927;27;45476;-71
2023/05/24 15:18:11;;;;;;;2.33;1.30;;;20.40;62.50;;;;;;5163704;27;45443;-71
2023/05/24 15:20:38;;;;;;;3.20;1.30;;;20.40;62.60;;;;;;5158482;27;45309;-71
2023/05/24 15:23:05;;;;;;;2.75;1.40;;;20.40;62.30;;;;;;5158870;27;47601;-72
2023/05/24 15:25:31;;;;;;;4.03;1.30;;;20.40;62.30;;;;;;5156876;27;45384;-73
2023/05/24 15:28:00;;;;;;;3.92;1.88;;;20.40;62.40;;;;;;5169065;27;45337;-73
2023/05/24 15:30:26;;;;;;;4.20;1.55;;;20.40;62.10;;;;;;5164921;27;45449;-74
2023/05/24 15:32:53;;;;;;;2.45;1.45;;;20.40;62.20;;;;;;5167989;27;47534;-73
2023/05/24 15:35:20;;;;;;;2.28;1.50;;;20.40;62.10;;;;;;5165391;27;46303;-72
2023/05/24 15:37:47;;;;;;;4.83;1.40;;;20.40;62.10;;;;;;5156224;27;45535;-73
2023/05/24 15:40:14;;;;;;;3.28;1.60;;;20.40;62.60;;;;;;5150180;27;45559;-72
2023/05/24 15:42:42;;;;;;;2.58;1.40;;;20.40;62.40;;;;;;5149467;27;47129;-72
2023/05/24 15:45:11;;;;;;;3.95;1.35;;;20.40;61.90;;;;;;5151692;27;45509;-72
2023/05/24 15:47:39;;;;;;;3.67;1.83;;;20.40;61.70;;;;;;5147991;27;45357;-72
2023/05/24 15:50:06;;;;;;;5.20;1.90;;;20.40;61.70;;;;;;5163427;27;45336;-72
2023/05/24 15:52:33;;;;;;;3.60;1.63;;;20.40;61.70;;;;;;5152459;27;47960;-72
2023/05/24 15:55:00;;;;;;;4.25;1.50;;;20.40;61.40;;;;;;5152415;27;45707;-71
2023/05/24 15:57:27;;;;;;;2.75;1.45;;;20.40;61.50;;;;;;5157226;27;45304;-71
2023/05/24 15:59:54;;;;;;;2.83;1.80;;;20.40;62.20;;;;;;5157528;27;45658;-71
2023/05/24 16:02:22;;;;;;;3.30;1.45;;;20.40;61.70;;;;;;5166473;27;47353;-72
2023/05/24 16:04:50;;;;;;;3.80;1.60;;;20.40;61.90;;;;;;5155814;27;45434;-73
2023/05/24 16:07:18;;;;;;;4.95;1.67;;;20.40;61.80;;;;;;5157101;27;45312;-72
2023/05/24 16:09:46;;;;;;;5.15;1.65;;;20.40;61.60;;;;;;5161382;27;45412;-72
2023/05/24 16:12:12;;;;;;;3.03;1.60;;;20.40;61.50;;;;;;5164219;27;46623;-73
2023/05/24 16:14:39;;;;;;;3.90;1.50;;;20.40;61.30;;;;;;5157929;27;45402;-74
2023/05/24 16:17:06;;;;;;;4.22;1.58;;;20.40;61.40;;;;;;5168433;27;45263;-74
2023/05/24 16:19:35;;;;;;;2.95;1.67;;;20.40;61.30;;;;;;5167024;27;45259;-74
2023/05/24 16:22:01;;;;;;;2.80;1.40;;;20.40;61.30;;;;;;5164127;27;46692;-73
2023/05/24 16:24:28;;;;;;;8.70;1.63;;;20.40;61.20;;;;;;5163457;27;45461;-72
2023/05/24 16:26:57;;;;;;;3.25;1.52;;;20.40;61.00;;;;;;5168128;27;45451;-72
2023/05/24 16:29:24;;;;;;;4.10;1.80;;;20.40;61.10;;;;;;5156099;27;45571;-71
2023/05/24 16:31:51;;;;;;;4.50;1.65;;;20.40;61.20;;;;;;5162894;27;48089;-72
2023/05/24 16:34:17;;;;;;;3.83;1.40;;;20.40;60.90;;;;;;5168475;27;45400;-72
2023/05/24 16:36:45;;;;;;;6.70;1.50;;;20.40;60.90;;;;;;5167981;27;45255;-72
2023/05/24 16:39:12;;;;;;;4.18;1.40;;;20.40;61.20;;;;;;5161563;27;45567;-72
2023/05/24 16:41:39;;;;;;;3.53;1.52;;;20.40;61.30;;;;;;5163374;27;46606;-71
2023/05/24 16:44:06;;;;;;;2.75;1.40;;;20.40;61.20;;;;;;5162386;27;45447;-72
2023/05/24 16:46:33;;;;;;;1.80;1.13;;;20.40;61.40;;;;;;5160177;27;45460;-72
2023/05/24 16:49:00;;;;;;;3.17;1.40;;;20.40;61.40;;;;;;5167490;27;45353;-72
2023/05/24 16:51:28;;;;;;;1.85;1.40;;;20.40;61.60;;;;;;5166089;27;46676;-72
2023/05/24 16:53:56;;;;;;;3.90;1.95;;;20.40;61.70;;;;;;5160238;27;45629;-72
2023/05/24 16:56:23;;;;;;;1.95;1.23;;;20.40;61.70;;;;;;5156465;27;45464;-71
2023/05/24 16:58:50;;;;;;;2.80;1.33;;;20.40;61.80;;;;;;5163398;27;45527;-71
2023/05/24 17:01:16;;;;;;;4.03;1.55;;;20.40;62.40;;;;;;5163473;27;46696;-71
2023/05/24 17:03:43;;;;;;;3.33;1.38;;;20.40;61.80;;;;;;5154820;27;45407;-72
2023/05/24 17:06:10;;;;;;;4.63;1.45;;;20.40;61.90;;;;;;5151006;27;45394;-71
2023/05/24 17:08:37;;;;;;;2.45;1.30;;;20.40;62.00;;;;;;5163866;27;45505;-71
2023/05/24 17:11:06;;;;;;;3.38;1.27;;;20.40;62.10;;;;;;5156914;27;45457;-71
2023/05/24 17:13:33;;;;;;;3.05;1.50;;;20.40;61.80;;;;;;5167383;27;45467;-71
2023/05/24 17:16:00;;;;;;;3.22;1.48;;;20.40;60.80;;;;;;5160048;27;45421;-72
2023/05/24 17:18:29;;;;;;;2.15;1.15;;;20.40;60.90;;;;;;5164700;27;45340;-72
2023/05/24 17:20:57;;;;;;;2.13;1.20;;;20.40;60.70;;;;;;5159169;27;48350;-71
2023/05/24 17:23:25;;;;;;;5.70;1.25;;;20.40;61.10;;;;;;5167277;27;45371;-71
2023/05/24 17:25:52;;;;;;;2.60;1.17;;;20.40;61.40;;;;;;5160823;27;45378;-72
2023/05/24 17:28:20;;;;;;;5.82;1.52;;;20.40;61.60;;;;;;5159676;27;45401;-71
2023/05/24 17:30:47;;;;;;;2.38;1.45;;;20.40;61.60;;;;;;5166859;27;47617;-71
2023/05/24 17:33:14;;;;;;;2.63;1.20;;;20.40;61.70;;;;;;5156785;27;45483;-71
2023/05/24 17:35:41;;;;;;;3.97;1.50;;;20.40;62.10;;;;;;5158346;27;45408;-74
2023/05/24 17:38:08;;;;;;;3.38;1.05;;;20.40;61.60;;;;;;5150197;27;45610;-71
2023/05/24 17:40:35;;;;;;;4.20;1.38;;;20.40;61.50;;;;;;5146041;27;46644;-71
2023/05/24 17:43:03;;;;;;;2.45;1.23;;;20.40;62.20;;;;;;5152965;27;45596;-72
2023/05/24 17:45:31;;;;;;;3.17;1.13;;;20.40;62.30;;;;;;5149352;27;45563;-72
2023/05/24 17:47:58;;;;;;;2.25;1.13;;;20.40;62.50;;;;;;5148706;27;45411;-72
2023/05/24 17:50:25;;;;;;;2.65;1.50;;;20.40;62.40;;;;;;5148588;27;46641;-71
2023/05/24 17:52:51;;;;;;;3.75;1.25;;;20.40;62.80;;;;;;5153734;27;45694;-73
2023/05/24 17:55:18;;;;;;;2.58;1.20;;;20.40;62.60;;;;;;5146850;27;45584;-71
2023/05/24 17:57:45;;;;;;;1.70;1.10;;;20.40;62.60;;;;;;5148201;27;45454;-71
2023/05/24 18:00:12;;;;;;;2.85;1.35;;;20.40;62.70;;;;;;5153196;27;45637;-72
2023/05/24 18:02:41;;;;;;;3.70;1.23;;;20.40;62.50;;;;;;5147721;27;45477;-71
2023/05/24 18:05:08;;;;;;;2.53;1.10;;;20.40;62.40;;;;;;5153338;27;45539;-72
2023/05/24 18:07:35;;;;;;;3.00;1.33;;;20.40;62.40;;;;;;5146646;27;45482;-71
2023/05/24 18:10:02;;;;;;;3.17;1.08;;;20.40;62.50;;;;;;5146200;27;48000;-72
2023/05/24 18:12:29;;;;;;;2.58;1.20;;;20.40;62.60;;;;;;5164866;27;45356;-72
2023/05/24 18:14:56;;;;;;;2.65;1.20;;;20.40;62.60;;;;;;5160914;27;45398;-72
2023/05/24 18:17:23;;;;;;;2.65;1.33;;;20.40;62.40;;;;;;5158154;27;45667;-71
2023/05/24 18:19:51;;;;;;;2.28;1.20;;;20.40;62.30;;;;;;5148876;27;48305;-71
2023/05/24 18:22:18;;;;;;;3.22;1.40;;;20.40;62.10;;;;;;5152005;27;45623;-73
2023/05/24 18:24:44;;;;;;;2.25;1.33;;;20.40;62.90;;;;;;5151032;27;45440;-72
2023/05/24 18:27:11;;;;;;;3.90;1.20;;;20.40;61.70;;;;;;5155740;27;45395;-72
2023/05/24 18:29:38;;;;;;;2.55;1.15;;;20.40;61.50;;;;;;5151210;27;46558;-72
2023/05/24 18:32:05;;;;;;;2.70;1.20;;;20.40;61.30;;;;;;5152652;27;45377;-71
2023/05/24 18:34:32;;;;;;;4.45;1.30;;;20.40;61.40;;;;;;5152890;27;45496;-72
2023/05/24 18:37:00;;;;;;;3.38;1.40;;;20.40;61.30;;;;;;5153634;27;45437;-71
2023/05/24 18:39:27;;;;;;;2.60;1.10;;;20.40;61.20;;;;;;5158146;27;47284;-71
2023/05/24 18:41:53;;;;;;;2.70;1.15;;;20.40;61.00;;;;;;5151464;27;45307;-72
2023/05/24 18:44:20;;;;;;;2.85;1.02;;;20.40;60.70;;;;;;5149711;27;45289;-72
2023/05/24 18:46:47;;;;;;;3.83;1.30;;;20.40;60.60;;;;;;5147516;27;45555;-72
2023/05/24 18:49:14;;;;;;;2.88;1.08;;;20.40;61.10;;;;;;5152920;27;45473;-72
2023/05/24 18:51:41;;;;;;;3.85;1.40;;;20.40;61.80;;;;;;5158984;27;45385;-72
2023/05/24 18:54:09;;;;;;;3.42;1.20;;;20.40;62.00;;;;;;5145662;27;45575;-71
2023/05/24 18:56:36;;;;;;;4.65;1.35;;;20.40;62.20;;;;;;5150249;27;45333;-71
2023/05/24 18:59:03;;;;;;;2.70;1.17;;;20.40;62.30;;;;;;5159791;27;47004;-74
2023/05/24 19:01:30;;;;;;;2.72;1.45;;;20.40;62.50;;;;;;5161411;27;45720;-72
2023/05/24 19:03:57;;;;;;;3.80;1.52;;;20.40;62.60;;;;;;5150254;27;45361;-72
2023/05/24 19:06:23;;;;;;;4.10;1.17;;;20.40;62.70;;;;;;5152398;27;45532;-72
2023/05/24 19:08:50;;;;;;;1.30;0.70;;;20.40;62.80;;;;;;5142377;27;45435;-71
2023/05/24 19:11:18;;;;;;;2.45;1.17;;;20.40;62.90;;;;;;5144557;27;45442;-72
2023/05/24 19:13:45;;;;;;;1.83;1.08;;;20.40;62.90;;;;;;5150655;27;45386;-71
2023/05/24 19:16:16;;;;;;;2.80;1.15;;;20.40;64.10;;;;;;5148379;27;45427;-71
2023/05/24 19:18:43;;;;;;;2.00;1.08;;;20.40;63.00;;;;;;5152136;27;46845;-71
2023/05/24 19:21:10;;;;;;;2.63;0.98;;;20.40;63.10;;;;;;5143510;27;45464;-71
2023/05/24 19:23:38;;;;;;;2.38;1.20;;;20.40;63.30;;;;;;5157400;27;45335;-71
2023/05/24 19:26:05;;;;;;;2.33;1.10;;;20.40;63.50;;;;;;5145094;27;45419;-71
2023/05/24 19:28:36;;;;;;;3.22;1.38;;;20.40;63.50;;;;;;5144183;27;46542;-72
2023/05/24 19:31:03;;;;;;;1.95;1.17;;;20.40;63.50;;;;;;5146123;27;45269;-71
2023/05/24 19:33:30;;;;;;;1.77;1.05;;;20.40;63.60;;;;;;5143428;27;45652;-72
2023/05/24 19:35:57;;;;;;;3.25;1.00;;;20.40;64.70;;;;;;5143571;27;45246;-71
2023/05/24 19:38:23;;;;;;;3.85;1.10;;;20.40;63.70;;;;;;5142637;27;46549;-71
2023/05/24 19:40:50;;;;;;;2.95;1.13;;;20.40;63.80;;;;;;5150581;27;45428;-72
2023/05/24 19:43:17;;;;;;;2.10;1.10;;;20.40;63.80;;;;;;5145442;27;45428;-71
2023/05/24 19:45:46;;;;;;;3.10;1.23;;;20.40;63.90;;;;;;5158738;27;45408;-72
2023/05/24 19:48:13;;;;;;;2.70;1.17;;;20.40;64.00;;;;;;5148626;27;46206;-71
2023/05/24 19:50:40;;;;;;;2.00;1.00;;;20.40;64.00;;;;;;5149744;27;45586;-72
2023/05/24 19:53:07;;;;;;;2.55;1.33;;;20.40;64.10;;;;;;5146930;27;45448;-71
2023/05/24 19:55:35;;;;;;;3.88;1.30;;;20.40;64.10;;;;;;5150978;27;45406;-71
2023/05/24 19:58:02;;;;;;;3.67;1.30;;;20.40;64.10;;;;;;5148433;27;47903;-71
2023/05/24 20:00:28;;;;;;;2.00;1.10;;;20.40;64.20;;;;;;5147356;27;45246;-71
2023/05/24 20:02:56;;;;;;;3.95;1.50;;;20.40;64.20;;;;;;5152202;27;45508;-71
2023/05/24 20:05:23;;;;;;;1.92;1.05;;;20.40;64.20;;;;;;5146056;27;45383;-71
2023/05/24 20:07:50;;;;;;;3.08;1.48;;;20.40;64.20;;;;;;5152412;27;47412;-72
2023/05/24 20:10:17;;;;;;;1.42;1.13;;;20.40;64.20;;;;;;5147663;27;45211;-71
2023/05/24 20:12:43;;;;;;;3.50;1.17;;;20.40;64.20;;;;;;5158470;27;45505;-71
2023/05/24 20:15:11;;;;;;;3.80;1.33;;;20.40;64.20;;;;;;5158007;27;45537;-71
2023/05/24 20:17:38;;;;;;;2.75;1.35;;;20.40;64.30;;;;;;5146656;27;46320;-74
2023/05/24 20:20:07;;;;;;;2.78;1.20;;;20.40;64.30;;;;;;5154810;27;45389;-70
2023/05/24 20:22:34;;;;;;;1.40;1.08;;;20.40;64.30;;;;;;5153865;27;45472;-71
2023/05/24 20:25:01;;;;;;;4.88;1.30;;;20.40;64.40;;;;;;5147002;27;45309;-72
2023/05/24 20:27:28;;;;;;;3.47;1.15;;;20.40;64.30;;;;;;5155772;27;46322;-72
2023/05/24 20:29:54;;;;;;;2.22;1.00;;;20.40;64.30;;;;;;5162780;27;46122;-74
2023/05/24 20:32:21;;;;;;;1.65;1.00;;;20.40;64.40;;;;;;5147018;27;45324;-73
2023/05/24 20:34:48;;;;;;;3.88;1.30;;;20.40;64.40;;;;;;5157977;27;45361;-73
2023/05/24 20:37:16;;;;;;;3.20;1.30;;;20.40;64.30;;;;;;5151288;27;46883;-72
2023/05/24 20:39:44;;;;;;;3.33;1.33;;;20.40;64.40;;;;;;5154516;27;45436;-72
2023/05/24 20:42:11;;;;;;;1.77;1.08;;;20.40;64.50;;;;;;5149165;27;45444;-73
2023/05/24 20:44:38;;;;;;;2.45;1.30;;;20.40;64.40;;;;;;5149071;27;45355;-71
2023/05/24 20:47:05;;;;;;;2.05;1.20;;;20.40;64.40;;;;;;5148930;27;46364;-72